AirNav   Everest Fuels
 
 599 users online  

26FL HCA Raulerson Hospital Heliport
Okeechobee, Florida, USA

GOING TO OKEECHOBEE?


FAA INFORMATION EFFECTIVE 02 JANUARY 2020

Location

FAA Identifier: 26FL
Lat/Long: 27-15-32.7700N 080-49-44.7700W
27-15.546167N 080-49.746167W
27.2591028,-80.8291028
(estimated)
Elevation: 34 ft. / 10 m (estimated)
Variation: 03W (1985)
From city: 1 mile N of OKEECHOBEE, FL
Time zone: UTC -5 (UTC -4 during Daylight Saving Time)
Zip code: 34972

Heliport Operations

Heliport use: Private use, MEDICAL
Activation date: 09/1989
Control tower: no
ARTCC: MIAMI CENTER
FSS: SAINT PETERSBURG FLIGHT SERVICE STATION
Attendance: UNATNDD
Segmented circle: no
Lights: FOR PERIMETER LGTS CALL 863-763-2151, EXTN 7255.

Heliport Communications

WX AWOS-3 at OBE (1.2 nm W): 118.675 (863-467-1148)

Nearby radio navigation aids

VOR radial/distance  VOR name  Freq  Var
PHKr346/29.5PAHOKEE VOR/DME115.4000E
TRVr223/31.0TREASURE VORTAC117.3007W
LBVr048/39.6LA BELLE VORTAC110.4001E

 
NDB name  Hdg/Dist  Freq  Var  ID
FORT PIERCE248/27.927507WFPR ..-. .--. .-.
UNITED314/33.740505WUTX ..- - -..-

Heliport Services

Runway Information

Helipad H1

Dimensions: 40 x 40 ft. / 12 x 12 m
Surface: concrete
Runway edge lights: PERI
Latitude: 27-15.546167N
Longitude: 080-49.746167W
Elevation: 34.0 ft.
Traffic pattern: leftleft

Heliport Ownership and Management from official FAA records

Ownership: Privately-owned
Owner: HCA
P.O. BOX 1307
OKEECHOBEE, FL 34973-1307
Phone (863) 763-2151
Manager: BENNY MATHEW, DIR OF OPS
P.O. BOX 1307
OKEECHOBEE, FL 34973-1307
Phone 863-824-2799
EXTENSION 185

Additional Remarks

OBSTRUCTION: 23 FT LIGHT POLES 75 FT TO SE AND 70FT SW
FOR CD CTC MIAMI ARTCC AT 305-716-1731.

Instrument Procedures

There are no published instrument procedures at 26FL.

Some nearby airports with instrument procedures:

KOBE - Okeechobee County Airport (1 nm W)
KFPR - Treasure Coast International Airport (28 nm NE)
KPHK - Palm Beach County Glades Airport (29 nm S)
KSEF - Sebring Regional Airport (30 nm NW)
KVRB - Vero Beach Regional Airport (32 nm NE)
 
Loc | Ops | Rwys | IFR | FBO | Links
Com | Nav | Svcs | Stats | Notes


 
Area around 26FL (HCA Raulerson Hospital Heliport)
 
Road maps at: MapQuest Bing Google
 
Aerial photo
No photo
 
Sectional chart

 
Airport distance calculator
Flying to HCA Raulerson Hospital Heliport? Find the distance to fly.

From to 26FL

Sunrise and sunset
Times for 19-Jan-2020
 Local
(UTC-5)
 Zulu
(UTC)
Morning civil twilight06:5011:50
Sunrise07:1512:15
Sunset17:5322:53
Evening civil twilight18:1823:18

Current date and time
Zulu (UTC)  19-Jan-2020 10:32:30
Local (UTC-5)  19-Jan-2020 05:32:30
 
METAR
KOBE 191015Z AUTO 00000KT 10SM CLR 12/12 A3013 RMK AO2
TAF
KFPR 
28nm NE 
190539Z 1906/2006 16004KT P6SM SCT035 TEMPO 1906/1908 BKN035 FM191500 18011KT P6SM SCT035 SCT250 FM192200 27008KT P6SM SCT030 BKN250 FM200100 26005KT P6SM BKN025 BKN100
KVRB 
32nm NE 
190539Z 1906/2006 17004KT P6SM SCT035 SCT250 TEMPO 1906/1908 BKN035 FM191400 18011KT P6SM SCT040 SCT250 FM192100 27008KT P6SM SCT030 BKN250 FM200100 28005KT P6SM BKN025 BKN100 AMD NOT SKED
KSUA 
33nm E 
190539Z 1906/2006 15004KT P6SM SCT035 TEMPO 1906/1909 BKN035 FM191500 18010KT P6SM SCT035 SCT250 FM192200 25008KT P6SM SCT030 BKN250 FM200100 26003KT P6SM BKN025 BKN100
NOTAMs
Click for the latest NOTAMs
NOTAMs are issued by the DoD/FAA and will open in a separate window not controlled by AirNav.

 

 
 

Would you like to see your business listed on this page?

 If your business provides an interesting product or service to pilots, flight crews, aircraft, or users of the HCA Raulerson Hospital Heliport, you should consider listing it here.  To start the listing process, click on the button below
 
Add a business
 

Other Pages about HCA Raulerson Hospital Heliport

Update a link
 
Copyright © AirNav, LLC. All rights reserved. Privacy Policy  Contact